| Date | Time | Temp. (oF) | Dew Point (oF) | Rel. Hum. (%) | Press. (in.) | Wind Dir. | Wind Speed (mph) | Hourly Rainfall (in.) |
|
|---|---|---|---|---|---|---|---|---|---|
| 1 | 05/08 | 00:00 | 52 | 44 | 76 | 30.49 | ESE | 3 | 0.00 |
| 2 | 05/07 | 23:00 | 54 | 44 | 69 | 30.48 | SSW | 5 | 0.00 |
| 3 | 05/07 | 22:00 | 56 | 44 | 65 | 30.47 | S | 2 | 0.00 |
| 4 | 05/07 | 21:00 | 59 | 44 | 58 | 30.44 | SSE | 8 | 0.00 |
| 5 | 05/07 | 20:00 | 62 | 41 | 47 | 30.43 | SE | 4 | 0.00 |
| 6 | 05/07 | 19:00 | 65 | 41 | 42 | 30.41 | S | 6 | 0.00 |
| 7 | 05/07 | 18:00 | 67 | 38 | 36 | 30.42 | SSE | 5 | 0.00 |
| 8 | 05/07 | 17:00 | 69 | 37 | 32 | 30.42 | ESE | 3 | 0.00 |
| 9 | 05/07 | 16:00 | 69 | 35 | 30 | 30.45 | E | 4 | 0.00 |
| 10 | 05/07 | 15:00 | 69 | 37 | 32 | 30.47 | S | 6 | 0.00 |
| 11 | 05/07 | 14:00 | 67 | 35 | 31 | 30.50 | WSW | 4 | 0.00 |
| 12 | 05/07 | 13:00 | 65 | 37 | 36 | 30.52 | SE | 5 | 0.00 |
| 13 | 05/07 | 12:00 | 61 | 36 | 40 | 30.55 | SSE | 5 | 0.00 |
| 14 | 05/07 | 11:00 | 57 | 38 | 51 | 30.55 | ENE | 4 | 0.00 |
| 15 | 05/07 | 10:00 | 54 | 39 | 58 | 30.56 | SSE | 4 | 0.00 |
| 16 | 05/07 | 09:00 | 50 | 39 | 68 | 30.56 | NE | 6 | 0.00 |
| 17 | 05/07 | 08:00 | 48 | 41 | 79 | 30.56 | E | 0 | 0.00 |
| 18 | 05/07 | 07:00 | 43 | 39 | 89 | 30.56 | SSE | 0 | 0.00 |
| 19 | 05/07 | 06:00 | 41 | 37 | 87 | 30.55 | SE | 1 | 0.00 |
| 20 | 05/07 | 05:00 | 42 | 37 | 85 | 30.54 | ENE | 0 | 0.00 |
| 21 | 05/07 | 04:00 | 44 | 38 | 81 | 30.54 | E | 0 | 0.00 |
| 22 | 05/07 | 03:00 | 47 | 39 | 74 | 30.54 | E | 0 | 0.00 |
| 23 | 05/07 | 02:00 | 49 | 39 | 70 | 30.54 | E | 0 | 0.00 |
| 24 | 05/07 | 01:00 | 51 | 40 | 66 | 30.54 | E | 2 | 0.00 |